sensor_id;sensor_type;location;lat;lon;timestamp;P1;durP1;ratioP1;P2;durP2;ratioP2
44822;SDS011;51097;51.984;5.650;2023-03-03T00:01:29;44.88;;;21.73;;
44822;SDS011;51097;51.984;5.650;2023-03-03T00:03:56;43.28;;;21.67;;
44822;SDS011;51097;51.984;5.650;2023-03-03T00:06:22;43.03;;;22.73;;
44822;SDS011;51097;51.984;5.650;2023-03-03T00:08:48;47.42;;;20.42;;
44822;SDS011;51097;51.984;5.650;2023-03-03T00:11:14;39.03;;;22.40;;
44822;SDS011;51097;51.984;5.650;2023-03-03T00:13:45;45.58;;;22.65;;
44822;SDS011;51097;51.984;5.650;2023-03-03T00:18:41;44.42;;;22.83;;
44822;SDS011;51097;51.984;5.650;2023-03-03T00:23:53;45.50;;;23.25;;
44822;SDS011;51097;51.984;5.650;2023-03-03T00:26:37;41.78;;;21.20;;
44822;SDS011;51097;51.984;5.650;2023-03-03T00:31:54;39.35;;;20.92;;
44822;SDS011;51097;51.984;5.650;2023-03-03T00:34:26;39.83;;;20.55;;
44822;SDS011;51097;51.984;5.650;2023-03-03T00:36:53;38.63;;;21.63;;
44822;SDS011;51097;51.984;5.650;2023-03-03T00:41:48;43.65;;;20.30;;
44822;SDS011;51097;51.984;5.650;2023-03-03T00:44:57;40.15;;;19.67;;
44822;SDS011;51097;51.984;5.650;2023-03-03T00:49:54;35.08;;;19.15;;
44822;SDS011;51097;51.984;5.650;2023-03-03T00:52:32;37.03;;;19.38;;
44822;SDS011;51097;51.984;5.650;2023-03-03T00:55:00;38.33;;;21.58;;
44822;SDS011;51097;51.984;5.650;2023-03-03T00:57:26;32.50;;;17.85;;
44822;SDS011;51097;51.984;5.650;2023-03-03T00:59:52;38.88;;;20.42;;
44822;SDS011;51097;51.984;5.650;2023-03-03T01:02:17;30.40;;;17.25;;
44822;SDS011;51097;51.984;5.650;2023-03-03T01:04:43;34.58;;;18.83;;
44822;SDS011;51097;51.984;5.650;2023-03-03T01:07:14;40.58;;;20.70;;
44822;SDS011;51097;51.984;5.650;2023-03-03T01:09:40;35.97;;;20.02;;
44822;SDS011;51097;51.984;5.650;2023-03-03T01:12:05;40.50;;;20.65;;
44822;SDS011;51097;51.984;5.650;2023-03-03T01:14:31;36.92;;;20.70;;
44822;SDS011;51097;51.984;5.650;2023-03-03T01:16:57;38.97;;;21.45;;
44822;SDS011;51097;51.984;5.650;2023-03-03T01:19:23;33.22;;;18.10;;
44822;SDS011;51097;51.984;5.650;2023-03-03T01:21:49;41.08;;;21.35;;
44822;SDS011;51097;51.984;5.650;2023-03-03T01:24:14;34.88;;;19.50;;
44822;SDS011;51097;51.984;5.650;2023-03-03T01:26:40;43.50;;;20.45;;
44822;SDS011;51097;51.984;5.650;2023-03-03T01:29:05;39.03;;;20.02;;
44822;SDS011;51097;51.984;5.650;2023-03-03T01:31:31;40.17;;;21.58;;
44822;SDS011;51097;51.984;5.650;2023-03-03T01:33:57;39.80;;;20.73;;
44822;SDS011;51097;51.984;5.650;2023-03-03T01:36:23;37.45;;;20.27;;
44822;SDS011;51097;51.984;5.650;2023-03-03T01:38:50;36.63;;;19.42;;
44822;SDS011;51097;51.984;5.650;2023-03-03T01:41:16;38.25;;;20.50;;
44822;SDS011;51097;51.984;5.650;2023-03-03T01:43:43;34.35;;;19.08;;
44822;SDS011;51097;51.984;5.650;2023-03-03T01:46:25;39.45;;;20.80;;
44822;SDS011;51097;51.984;5.650;2023-03-03T01:48:55;37.47;;;19.42;;
44822;SDS011;51097;51.984;5.650;2023-03-03T01:51:28;34.80;;;20.90;;
44822;SDS011;51097;51.984;5.650;2023-03-03T01:53:56;39.22;;;20.63;;
44822;SDS011;51097;51.984;5.650;2023-03-03T01:56:25;42.80;;;22.25;;
44822;SDS011;51097;51.984;5.650;2023-03-03T01:58:52;40.05;;;21.45;;
44822;SDS011;51097;51.984;5.650;2023-03-03T02:01:21;42.55;;;21.73;;
44822;SDS011;51097;51.984;5.650;2023-03-03T02:06:18;42.88;;;21.38;;
44822;SDS011;51097;51.984;5.650;2023-03-03T02:08:49;43.17;;;21.17;;
44822;SDS011;51097;51.984;5.650;2023-03-03T02:11:22;40.75;;;21.70;;
44822;SDS011;51097;51.984;5.650;2023-03-03T02:13:48;40.78;;;22.73;;
44822;SDS011;51097;51.984;5.650;2023-03-03T02:16:13;43.13;;;21.85;;
44822;SDS011;51097;51.984;5.650;2023-03-03T02:18:39;37.97;;;20.77;;
44822;SDS011;51097;51.984;5.650;2023-03-03T02:21:11;44.78;;;22.25;;
44822;SDS011;51097;51.984;5.650;2023-03-03T02:23:52;40.20;;;20.23;;
44822;SDS011;51097;51.984;5.650;2023-03-03T02:26:40;35.88;;;21.30;;
44822;SDS011;51097;51.984;5.650;2023-03-03T02:29:06;36.97;;;20.73;;
44822;SDS011;51097;51.984;5.650;2023-03-03T02:31:33;39.25;;;21.67;;
44822;SDS011;51097;51.984;5.650;2023-03-03T02:33:59;34.97;;;20.05;;
44822;SDS011;51097;51.984;5.650;2023-03-03T02:36:26;40.15;;;21.30;;
44822;SDS011;51097;51.984;5.650;2023-03-03T02:44:20;42.58;;;22.75;;
44822;SDS011;51097;51.984;5.650;2023-03-03T02:46:48;39.97;;;23.25;;
44822;SDS011;51097;51.984;5.650;2023-03-03T02:49:16;40.67;;;21.38;;
44822;SDS011;51097;51.984;5.650;2023-03-03T02:51:44;41.20;;;20.97;;
44822;SDS011;51097;51.984;5.650;2023-03-03T02:54:10;38.00;;;20.45;;
44822;SDS011;51097;51.984;5.650;2023-03-03T02:56:37;40.58;;;21.02;;
44822;SDS011;51097;51.984;5.650;2023-03-03T02:59:03;39.78;;;20.25;;
44822;SDS011;51097;51.984;5.650;2023-03-03T03:01:29;37.47;;;20.35;;
44822;SDS011;51097;51.984;5.650;2023-03-03T03:03:56;43.15;;;21.35;;
44822;SDS011;51097;51.984;5.650;2023-03-03T03:06:22;37.38;;;19.33;;
44822;SDS011;51097;51.984;5.650;2023-03-03T03:08:48;38.92;;;21.67;;
44822;SDS011;51097;51.984;5.650;2023-03-03T03:11:14;39.97;;;21.33;;
44822;SDS011;51097;51.984;5.650;2023-03-03T03:13:39;35.90;;;20.15;;
44822;SDS011;51097;51.984;5.650;2023-03-03T03:16:05;39.38;;;19.98;;
44822;SDS011;51097;51.984;5.650;2023-03-03T03:18:31;35.65;;;21.23;;
44822;SDS011;51097;51.984;5.650;2023-03-03T03:20:56;41.22;;;21.02;;
44822;SDS011;51097;51.984;5.650;2023-03-03T03:23:29;43.38;;;20.17;;
44822;SDS011;51097;51.984;5.650;2023-03-03T03:25:54;36.67;;;21.33;;
44822;SDS011;51097;51.984;5.650;2023-03-03T03:28:20;33.30;;;18.23;;
44822;SDS011;51097;51.984;5.650;2023-03-03T03:30:45;35.65;;;19.13;;
44822;SDS011;51097;51.984;5.650;2023-03-03T03:33:11;37.20;;;20.05;;
44822;SDS011;51097;51.984;5.650;2023-03-03T03:35:37;41.95;;;20.48;;
44822;SDS011;51097;51.984;5.650;2023-03-03T03:38:09;37.88;;;19.70;;
44822;SDS011;51097;51.984;5.650;2023-03-03T03:40:35;38.10;;;19.58;;
44822;SDS011;51097;51.984;5.650;2023-03-03T03:43:00;36.85;;;20.05;;
44822;SDS011;51097;51.984;5.650;2023-03-03T03:45:26;39.95;;;20.10;;
44822;SDS011;51097;51.984;5.650;2023-03-03T03:47:51;36.72;;;19.42;;
44822;SDS011;51097;51.984;5.650;2023-03-03T03:50:17;36.08;;;19.55;;
44822;SDS011;51097;51.984;5.650;2023-03-03T03:52:43;33.30;;;19.42;;
44822;SDS011;51097;51.984;5.650;2023-03-03T03:55:08;36.38;;;18.77;;
44822;SDS011;51097;51.984;5.650;2023-03-03T03:57:34;39.90;;;19.73;;
44822;SDS011;51097;51.984;5.650;2023-03-03T04:00:00;34.20;;;17.77;;
44822;SDS011;51097;51.984;5.650;2023-03-03T04:02:25;35.03;;;18.30;;
44822;SDS011;51097;51.984;5.650;2023-03-03T04:04:51;35.08;;;18.70;;
44822;SDS011;51097;51.984;5.650;2023-03-03T04:07:16;37.00;;;18.35;;
44822;SDS011;51097;51.984;5.650;2023-03-03T04:09:42;36.28;;;18.38;;
44822;SDS011;51097;51.984;5.650;2023-03-03T04:12:07;35.47;;;17.45;;
44822;SDS011;51097;51.984;5.650;2023-03-03T04:14:33;38.88;;;19.55;;
44822;SDS011;51097;51.984;5.650;2023-03-03T04:16:58;32.50;;;18.73;;
44822;SDS011;51097;51.984;5.650;2023-03-03T04:19:24;34.78;;;17.90;;
44822;SDS011;51097;51.984;5.650;2023-03-03T04:21:49;32.80;;;17.02;;
44822;SDS011;51097;51.984;5.650;2023-03-03T04:24:15;39.20;;;18.52;;
44822;SDS011;51097;51.984;5.650;2023-03-03T04:26:41;32.30;;;17.92;;
44822;SDS011;51097;51.984;5.650;2023-03-03T04:29:06;35.72;;;16.85;;
44822;SDS011;51097;51.984;5.650;2023-03-03T04:31:32;35.17;;;17.05;;
44822;SDS011;51097;51.984;5.650;2023-03-03T04:33:57;31.80;;;18.77;;
44822;SDS011;51097;51.984;5.650;2023-03-03T04:36:23;39.03;;;18.77;;
44822;SDS011;51097;51.984;5.650;2023-03-03T04:38:49;40.40;;;19.27;;
44822;SDS011;51097;51.984;5.650;2023-03-03T04:41:14;34.03;;;18.48;;
44822;SDS011;51097;51.984;5.650;2023-03-03T04:43:40;33.13;;;17.98;;
44822;SDS011;51097;51.984;5.650;2023-03-03T04:46:06;35.17;;;16.98;;
44822;SDS011;51097;51.984;5.650;2023-03-03T04:48:31;32.78;;;19.00;;
44822;SDS011;51097;51.984;5.650;2023-03-03T04:50:57;31.13;;;16.52;;
44822;SDS011;51097;51.984;5.650;2023-03-03T04:53:23;33.25;;;17.40;;
44822;SDS011;51097;51.984;5.650;2023-03-03T04:55:49;37.25;;;17.30;;
44822;SDS011;51097;51.984;5.650;2023-03-03T04:58:18;31.00;;;15.90;;
44822;SDS011;51097;51.984;5.650;2023-03-03T05:00:52;27.67;;;15.80;;
44822;SDS011;51097;51.984;5.650;2023-03-03T05:03:19;30.15;;;15.35;;
44822;SDS011;51097;51.984;5.650;2023-03-03T05:05:45;27.85;;;15.20;;
44822;SDS011;51097;51.984;5.650;2023-03-03T05:08:11;28.83;;;14.40;;
44822;SDS011;51097;51.984;5.650;2023-03-03T05:10:37;28.67;;;14.20;;
44822;SDS011;51097;51.984;5.650;2023-03-03T05:13:03;32.55;;;15.35;;
44822;SDS011;51097;51.984;5.650;2023-03-03T05:15:30;31.98;;;15.95;;
44822;SDS011;51097;51.984;5.650;2023-03-03T05:17:56;32.60;;;16.70;;
44822;SDS011;51097;51.984;5.650;2023-03-03T05:20:22;36.85;;;16.52;;
44822;SDS011;51097;51.984;5.650;2023-03-03T05:22:49;38.55;;;17.08;;
44822;SDS011;51097;51.984;5.650;2023-03-03T05:25:14;32.67;;;17.13;;
44822;SDS011;51097;51.984;5.650;2023-03-03T05:27:40;33.65;;;16.65;;
44822;SDS011;51097;51.984;5.650;2023-03-03T05:30:05;34.55;;;16.88;;
44822;SDS011;51097;51.984;5.650;2023-03-03T05:32:32;31.40;;;17.25;;
44822;SDS011;51097;51.984;5.650;2023-03-03T05:34:57;35.28;;;16.52;;
44822;SDS011;51097;51.984;5.650;2023-03-03T05:37:23;28.55;;;14.95;;
44822;SDS011;51097;51.984;5.650;2023-03-03T05:39:49;31.48;;;16.65;;
44822;SDS011;51097;51.984;5.650;2023-03-03T05:42:14;28.92;;;14.65;;
44822;SDS011;51097;51.984;5.650;2023-03-03T05:44:40;27.92;;;13.95;;
44822;SDS011;51097;51.984;5.650;2023-03-03T05:47:05;32.67;;;14.98;;
44822;SDS011;51097;51.984;5.650;2023-03-03T05:49:31;30.17;;;14.80;;
44822;SDS011;51097;51.984;5.650;2023-03-03T05:51:57;32.10;;;15.60;;
44822;SDS011;51097;51.984;5.650;2023-03-03T05:54:23;28.10;;;15.73;;
44822;SDS011;51097;51.984;5.650;2023-03-03T05:56:49;30.70;;;15.63;;
44822;SDS011;51097;51.984;5.650;2023-03-03T05:59:14;28.95;;;14.90;;
44822;SDS011;51097;51.984;5.650;2023-03-03T06:01:40;27.80;;;13.95;;
44822;SDS011;51097;51.984;5.650;2023-03-03T06:04:05;27.45;;;14.07;;
44822;SDS011;51097;51.984;5.650;2023-03-03T06:06:31;28.23;;;14.02;;
44822;SDS011;51097;51.984;5.650;2023-03-03T06:08:56;31.45;;;15.63;;
44822;SDS011;51097;51.984;5.650;2023-03-03T06:11:22;29.75;;;14.30;;
44822;SDS011;51097;51.984;5.650;2023-03-03T06:13:48;37.70;;;15.85;;
44822;SDS011;51097;51.984;5.650;2023-03-03T06:16:13;27.77;;;14.13;;
44822;SDS011;51097;51.984;5.650;2023-03-03T06:18:39;32.65;;;17.27;;
44822;SDS011;51097;51.984;5.650;2023-03-03T06:21:04;28.98;;;14.27;;
44822;SDS011;51097;51.984;5.650;2023-03-03T06:23:30;32.40;;;15.65;;
44822;SDS011;51097;51.984;5.650;2023-03-03T06:25:56;28.02;;;15.15;;
44822;SDS011;51097;51.984;5.650;2023-03-03T06:28:22;25.17;;;14.35;;
44822;SDS011;51097;51.984;5.650;2023-03-03T06:30:51;27.80;;;13.27;;
44822;SDS011;51097;51.984;5.650;2023-03-03T06:33:18;26.25;;;11.57;;
44822;SDS011;51097;51.984;5.650;2023-03-03T06:35:43;27.65;;;13.88;;
44822;SDS011;51097;51.984;5.650;2023-03-03T06:38:12;23.75;;;12.77;;
44822;SDS011;51097;51.984;5.650;2023-03-03T06:40:38;22.77;;;13.07;;
44822;SDS011;51097;51.984;5.650;2023-03-03T06:43:04;27.92;;;14.32;;
44822;SDS011;51097;51.984;5.650;2023-03-03T06:45:29;25.02;;;12.70;;
44822;SDS011;51097;51.984;5.650;2023-03-03T06:47:55;25.27;;;12.10;;
44822;SDS011;51097;51.984;5.650;2023-03-03T06:50:20;20.90;;;11.60;;
44822;SDS011;51097;51.984;5.650;2023-03-03T06:52:46;22.10;;;11.15;;
44822;SDS011;51097;51.984;5.650;2023-03-03T06:55:21;22.73;;;11.50;;
44822;SDS011;51097;51.984;5.650;2023-03-03T06:57:47;23.65;;;11.73;;
44822;SDS011;51097;51.984;5.650;2023-03-03T07:02:46;22.60;;;11.00;;
44822;SDS011;51097;51.984;5.650;2023-03-03T07:05:17;23.00;;;11.02;;
44822;SDS011;51097;51.984;5.650;2023-03-03T07:07:43;17.67;;;9.70;;
44822;SDS011;51097;51.984;5.650;2023-03-03T07:10:17;14.30;;;8.25;;
44822;SDS011;51097;51.984;5.650;2023-03-03T07:12:44;16.98;;;8.55;;
44822;SDS011;51097;51.984;5.650;2023-03-03T07:17:49;15.10;;;8.07;;
44822;SDS011;51097;51.984;5.650;2023-03-03T07:20:38;16.17;;;8.80;;
44822;SDS011;51097;51.984;5.650;2023-03-03T07:23:10;11.32;;;6.18;;
44822;SDS011;51097;51.984;5.650;2023-03-03T07:25:49;12.95;;;7.68;;
44822;SDS011;51097;51.984;5.650;2023-03-03T07:28:22;16.00;;;7.65;;
44822;SDS011;51097;51.984;5.650;2023-03-03T07:30:52;14.50;;;7.95;;
44822;SDS011;51097;51.984;5.650;2023-03-03T07:35:44;14.02;;;6.82;;
44822;SDS011;51097;51.984;5.650;2023-03-03T07:38:24;14.50;;;7.35;;
44822;SDS011;51097;51.984;5.650;2023-03-03T07:40:56;14.65;;;7.45;;
44822;SDS011;51097;51.984;5.650;2023-03-03T07:43:36;13.45;;;7.07;;
44822;SDS011;51097;51.984;5.650;2023-03-03T07:49:15;11.93;;;6.85;;
44822;SDS011;51097;51.984;5.650;2023-03-03T07:51:51;12.30;;;6.32;;
44822;SDS011;51097;51.984;5.650;2023-03-03T08:04:48;16.05;;;7.70;;
44822;SDS011;51097;51.984;5.650;2023-03-03T08:07:18;18.40;;;8.15;;
44822;SDS011;51097;51.984;5.650;2023-03-03T08:09:49;16.40;;;8.57;;
44822;SDS011;51097;51.984;5.650;2023-03-03T08:15:11;14.77;;;7.38;;
44822;SDS011;51097;51.984;5.650;2023-03-03T08:17:49;15.80;;;8.43;;
44822;SDS011;51097;51.984;5.650;2023-03-03T08:23:00;11.88;;;6.93;;
44822;SDS011;51097;51.984;5.650;2023-03-03T08:25:25;14.93;;;8.48;;
44822;SDS011;51097;51.984;5.650;2023-03-03T08:27:51;13.93;;;7.10;;
44822;SDS011;51097;51.984;5.650;2023-03-03T08:30:16;12.93;;;7.63;;
44822;SDS011;51097;51.984;5.650;2023-03-03T08:32:42;16.13;;;7.57;;
44822;SDS011;51097;51.984;5.650;2023-03-03T08:35:07;17.88;;;8.15;;
44822;SDS011;51097;51.984;5.650;2023-03-03T08:37:33;13.00;;;7.35;;
44822;SDS011;51097;51.984;5.650;2023-03-03T08:39:59;15.13;;;7.55;;
44822;SDS011;51097;51.984;5.650;2023-03-03T08:42:24;11.63;;;7.53;;
44822;SDS011;51097;51.984;5.650;2023-03-03T08:44:50;12.98;;;6.47;;
44822;SDS011;51097;51.984;5.650;2023-03-03T08:47:15;12.50;;;7.18;;
44822;SDS011;51097;51.984;5.650;2023-03-03T08:49:41;10.40;;;6.05;;
44822;SDS011;51097;51.984;5.650;2023-03-03T08:52:06;8.48;;;6.72;;
44822;SDS011;51097;51.984;5.650;2023-03-03T08:54:32;10.02;;;6.38;;
44822;SDS011;51097;51.984;5.650;2023-03-03T08:56:58;11.05;;;7.45;;
44822;SDS011;51097;51.984;5.650;2023-03-03T08:59:23;10.75;;;6.55;;
44822;SDS011;51097;51.984;5.650;2023-03-03T09:01:49;9.90;;;5.72;;
44822;SDS011;51097;51.984;5.650;2023-03-03T09:04:14;12.43;;;6.38;;
44822;SDS011;51097;51.984;5.650;2023-03-03T09:06:40;11.52;;;6.97;;
44822;SDS011;51097;51.984;5.650;2023-03-03T09:09:05;13.70;;;6.90;;
44822;SDS011;51097;51.984;5.650;2023-03-03T09:11:31;9.00;;;5.80;;
44822;SDS011;51097;51.984;5.650;2023-03-03T09:14:10;9.60;;;5.13;;
44822;SDS011;51097;51.984;5.650;2023-03-03T09:16:38;11.00;;;6.10;;
44822;SDS011;51097;51.984;5.650;2023-03-03T09:21:58;13.52;;;6.15;;
44822;SDS011;51097;51.984;5.650;2023-03-03T09:24:35;9.45;;;5.63;;
44822;SDS011;51097;51.984;5.650;2023-03-03T09:27:01;12.40;;;6.00;;
44822;SDS011;51097;51.984;5.650;2023-03-03T09:34:49;10.05;;;6.13;;
44822;SDS011;51097;51.984;5.650;2023-03-03T09:37:30;9.45;;;5.45;;
44822;SDS011;51097;51.984;5.650;2023-03-03T09:40:00;10.82;;;6.03;;
44822;SDS011;51097;51.984;5.650;2023-03-03T09:43:03;11.00;;;5.78;;
44822;SDS011;51097;51.984;5.650;2023-03-03T09:51:12;9.93;;;5.40;;
44822;SDS011;51097;51.984;5.650;2023-03-03T09:53:53;7.25;;;4.53;;
44822;SDS011;51097;51.984;5.650;2023-03-03T09:56:45;8.48;;;4.35;;
44822;SDS011;51097;51.984;5.650;2023-03-03T10:04:58;8.35;;;3.97;;
44822;SDS011;51097;51.984;5.650;2023-03-03T10:10:36;10.50;;;4.60;;
44822;SDS011;51097;51.984;5.650;2023-03-03T10:13:30;5.47;;;3.40;;
44822;SDS011;51097;51.984;5.650;2023-03-03T10:21:49;7.10;;;4.05;;
44822;SDS011;51097;51.984;5.650;2023-03-03T10:24:22;5.32;;;3.72;;
44822;SDS011;51097;51.984;5.650;2023-03-03T10:35:17;5.35;;;3.40;;
44822;SDS011;51097;51.984;5.650;2023-03-03T10:38:01;5.95;;;3.75;;
44822;SDS011;51097;51.984;5.650;2023-03-03T10:52:14;9.77;;;4.65;;
44822;SDS011;51097;51.984;5.650;2023-03-03T11:06:00;6.28;;;4.60;;
44822;SDS011;51097;51.984;5.650;2023-03-03T11:11:40;7.70;;;5.78;;
44822;SDS011;51097;51.984;5.650;2023-03-03T11:17:09;6.95;;;5.03;;
44822;SDS011;51097;51.984;5.650;2023-03-03T11:38:58;9.48;;;7.45;;
44822;SDS011;51097;51.984;5.650;2023-03-03T11:41:30;11.88;;;9.93;;
44822;SDS011;51097;51.984;5.650;2023-03-03T11:49:14;10.57;;;7.90;;
44822;SDS011;51097;51.984;5.650;2023-03-03T11:51:54;10.75;;;8.73;;
44822;SDS011;51097;51.984;5.650;2023-03-03T11:54:45;12.63;;;8.70;;
44822;SDS011;51097;51.984;5.650;2023-03-03T11:57:28;10.30;;;7.05;;
44822;SDS011;51097;51.984;5.650;2023-03-03T12:11:57;6.57;;;3.70;;
44822;SDS011;51097;51.984;5.650;2023-03-03T12:14:36;5.82;;;3.67;;
44822;SDS011;51097;51.984;5.650;2023-03-03T12:17:34;5.90;;;2.72;;
44822;SDS011;51097;51.984;5.650;2023-03-03T12:20:31;3.75;;;2.50;;
44822;SDS011;51097;51.984;5.650;2023-03-03T12:23:19;4.40;;;2.20;;
44822;SDS011;51097;51.984;5.650;2023-03-03T12:31:32;4.32;;;2.80;;
44822;SDS011;51097;51.984;5.650;2023-03-03T12:36:49;6.07;;;2.78;;
44822;SDS011;51097;51.984;5.650;2023-03-03T12:39:39;5.38;;;2.90;;
44822;SDS011;51097;51.984;5.650;2023-03-03T12:42:14;5.93;;;2.70;;
44822;SDS011;51097;51.984;5.650;2023-03-03T12:44:49;4.75;;;2.80;;
44822;SDS011;51097;51.984;5.650;2023-03-03T12:47:37;4.35;;;2.72;;
44822;SDS011;51097;51.984;5.650;2023-03-03T12:50:33;4.93;;;2.83;;
44822;SDS011;51097;51.984;5.650;2023-03-03T13:14:45;2.70;;;1.88;;
44822;SDS011;51097;51.984;5.650;2023-03-03T13:19:59;3.67;;;2.33;;
44822;SDS011;51097;51.984;5.650;2023-03-03T13:22:37;3.15;;;2.50;;
44822;SDS011;51097;51.984;5.650;2023-03-03T13:27:58;4.07;;;2.03;;
44822;SDS011;51097;51.984;5.650;2023-03-03T13:30:31;5.13;;;2.50;;
44822;SDS011;51097;51.984;5.650;2023-03-03T13:33:09;4.25;;;2.65;;
44822;SDS011;51097;51.984;5.650;2023-03-03T13:35:53;4.65;;;2.50;;
44822;SDS011;51097;51.984;5.650;2023-03-03T13:38:32;4.00;;;2.05;;
44822;SDS011;51097;51.984;5.650;2023-03-03T13:43:56;4.88;;;2.60;;
44822;SDS011;51097;51.984;5.650;2023-03-03T13:46:34;3.42;;;2.03;;
44822;SDS011;51097;51.984;5.650;2023-03-03T13:51:43;3.80;;;2.20;;
44822;SDS011;51097;51.984;5.650;2023-03-03T14:11:13;3.83;;;1.80;;
44822;SDS011;51097;51.984;5.650;2023-03-03T14:19:27;2.80;;;1.55;;
44822;SDS011;51097;51.984;5.650;2023-03-03T14:25:01;3.15;;;1.98;;
44822;SDS011;51097;51.984;5.650;2023-03-03T14:30:45;5.53;;;1.90;;
44822;SDS011;51097;51.984;5.650;2023-03-03T14:36:16;2.78;;;1.65;;
44822;SDS011;51097;51.984;5.650;2023-03-03T14:38:24;4.90;;;1.80;;
44822;SDS011;51097;51.984;5.650;2023-03-03T14:41:03;3.50;;;1.77;;
44822;SDS011;51097;51.984;5.650;2023-03-03T14:43:43;4.55;;;2.08;;
44822;SDS011;51097;51.984;5.650;2023-03-03T14:46:32;3.33;;;1.65;;
44822;SDS011;51097;51.984;5.650;2023-03-03T14:49:34;5.60;;;2.75;;
44822;SDS011;51097;51.984;5.650;2023-03-03T14:55:01;4.22;;;2.97;;
44822;SDS011;51097;51.984;5.650;2023-03-03T15:10:31;4.13;;;1.92;;
44822;SDS011;51097;51.984;5.650;2023-03-03T15:16:08;4.57;;;1.85;;
44822;SDS011;51097;51.984;5.650;2023-03-03T15:21:31;5.07;;;2.05;;
44822;SDS011;51097;51.984;5.650;2023-03-03T15:27:11;3.90;;;2.40;;
44822;SDS011;51097;51.984;5.650;2023-03-03T15:32:32;4.38;;;2.03;;
44822;SDS011;51097;51.984;5.650;2023-03-03T15:38:33;3.00;;;2.20;;
44822;SDS011;51097;51.984;5.650;2023-03-03T15:49:12;2.95;;;1.90;;
44822;SDS011;51097;51.984;5.650;2023-03-03T15:51:46;3.13;;;1.60;;
44822;SDS011;51097;51.984;5.650;2023-03-03T16:02:57;4.30;;;1.92;;
44822;SDS011;51097;51.984;5.650;2023-03-03T16:05:32;4.05;;;2.20;;
44822;SDS011;51097;51.984;5.650;2023-03-03T16:08:11;4.25;;;1.63;;
44822;SDS011;51097;51.984;5.650;2023-03-03T16:13:20;2.85;;;1.98;;
44822;SDS011;51097;51.984;5.650;2023-03-03T16:21:23;3.67;;;2.17;;
44822;SDS011;51097;51.984;5.650;2023-03-03T16:23:50;3.20;;;1.42;;
44822;SDS011;51097;51.984;5.650;2023-03-03T16:29:21;3.65;;;1.95;;
44822;SDS011;51097;51.984;5.650;2023-03-03T16:32:11;4.32;;;2.45;;
44822;SDS011;51097;51.984;5.650;2023-03-03T16:40:31;8.80;;;3.70;;
44822;SDS011;51097;51.984;5.650;2023-03-03T16:45:39;4.53;;;2.25;;
44822;SDS011;51097;51.984;5.650;2023-03-03T16:48:13;3.22;;;2.25;;
44822;SDS011;51097;51.984;5.650;2023-03-03T16:50:58;3.40;;;1.83;;
44822;SDS011;51097;51.984;5.650;2023-03-03T16:56:12;3.38;;;1.40;;
44822;SDS011;51097;51.984;5.650;2023-03-03T17:01:52;3.30;;;1.42;;
44822;SDS011;51097;51.984;5.650;2023-03-03T17:04:41;3.47;;;1.55;;
44822;SDS011;51097;51.984;5.650;2023-03-03T17:07:18;4.63;;;1.80;;
44822;SDS011;51097;51.984;5.650;2023-03-03T17:12:46;2.17;;;1.58;;
44822;SDS011;51097;51.984;5.650;2023-03-03T17:18:53;4.18;;;1.60;;
44822;SDS011;51097;51.984;5.650;2023-03-03T17:21:12;5.85;;;1.65;;
44822;SDS011;51097;51.984;5.650;2023-03-03T17:23:48;3.58;;;1.65;;
44822;SDS011;51097;51.984;5.650;2023-03-03T17:37:23;8.73;;;1.42;;
44822;SDS011;51097;51.984;5.650;2023-03-03T17:45:52;5.32;;;1.55;;
44822;SDS011;51097;51.984;5.650;2023-03-03T17:51:03;5.45;;;1.73;;
44822;SDS011;51097;51.984;5.650;2023-03-03T17:56:56;7.90;;;1.88;;
44822;SDS011;51097;51.984;5.650;2023-03-03T18:22:45;2.92;;;2.08;;
44822;SDS011;51097;51.984;5.650;2023-03-03T18:25:13;9.95;;;3.75;;
44822;SDS011;51097;51.984;5.650;2023-03-03T18:33:16;7.80;;;3.28;;
44822;SDS011;51097;51.984;5.650;2023-03-03T18:38:55;12.25;;;3.00;;
44822;SDS011;51097;51.984;5.650;2023-03-03T18:41:29;11.13;;;3.33;;
44822;SDS011;51097;51.984;5.650;2023-03-03T18:43:57;15.13;;;2.85;;
44822;SDS011;51097;51.984;5.650;2023-03-03T18:48:50;7.70;;;2.10;;
44822;SDS011;51097;51.984;5.650;2023-03-03T19:05:04;8.05;;;2.47;;
44822;SDS011;51097;51.984;5.650;2023-03-03T19:10:43;15.68;;;2.70;;
44822;SDS011;51097;51.984;5.650;2023-03-03T19:15:57;14.45;;;3.42;;
44822;SDS011;51097;51.984;5.650;2023-03-03T19:18:28;11.13;;;2.53;;
44822;SDS011;51097;51.984;5.650;2023-03-03T19:23:45;14.60;;;2.65;;
44822;SDS011;51097;51.984;5.650;2023-03-03T19:40:10;14.98;;;2.78;;
44822;SDS011;51097;51.984;5.650;2023-03-03T19:43:03;10.82;;;2.97;;
44822;SDS011;51097;51.984;5.650;2023-03-03T19:48:28;13.13;;;2.55;;
44822;SDS011;51097;51.984;5.650;2023-03-03T19:51:31;13.18;;;2.70;;
44822;SDS011;51097;51.984;5.650;2023-03-03T19:54:14;7.10;;;2.53;;
44822;SDS011;51097;51.984;5.650;2023-03-03T19:56:50;9.45;;;2.08;;
44822;SDS011;51097;51.984;5.650;2023-03-03T20:05:08;16.15;;;5.45;;
44822;SDS011;51097;51.984;5.650;2023-03-03T20:16:06;12.02;;;2.53;;
44822;SDS011;51097;51.984;5.650;2023-03-03T20:18:50;10.85;;;3.15;;
44822;SDS011;51097;51.984;5.650;2023-03-03T20:21:37;11.67;;;3.43;;
44822;SDS011;51097;51.984;5.650;2023-03-03T20:24:25;17.55;;;2.85;;
44822;SDS011;51097;51.984;5.650;2023-03-03T20:27:04;11.55;;;4.28;;
44822;SDS011;51097;51.984;5.650;2023-03-03T20:35:49;15.75;;;3.35;;
44822;SDS011;51097;51.984;5.650;2023-03-03T20:44:08;15.18;;;3.90;;
44822;SDS011;51097;51.984;5.650;2023-03-03T21:00:26;13.95;;;2.72;;
44822;SDS011;51097;51.984;5.650;2023-03-03T21:06:05;11.48;;;3.03;;
44822;SDS011;51097;51.984;5.650;2023-03-03T21:11:22;9.10;;;3.15;;
44822;SDS011;51097;51.984;5.650;2023-03-03T21:14:25;11.27;;;3.10;;
44822;SDS011;51097;51.984;5.650;2023-03-03T21:16:53;15.15;;;3.03;;
44822;SDS011;51097;51.984;5.650;2023-03-03T21:19:27;15.65;;;3.63;;
44822;SDS011;51097;51.984;5.650;2023-03-03T21:21:58;13.57;;;2.85;;
44822;SDS011;51097;51.984;5.650;2023-03-03T21:30:11;15.27;;;2.97;;
44822;SDS011;51097;51.984;5.650;2023-03-03T21:32:42;16.73;;;3.67;;
44822;SDS011;51097;51.984;5.650;2023-03-03T21:35:19;16.45;;;4.55;;
44822;SDS011;51097;51.984;5.650;2023-03-03T21:40:17;10.32;;;3.55;;
44822;SDS011;51097;51.984;5.650;2023-03-03T21:42:53;16.35;;;4.22;;
44822;SDS011;51097;51.984;5.650;2023-03-03T21:45:24;15.43;;;4.70;;
44822;SDS011;51097;51.984;5.650;2023-03-03T21:47:50;14.25;;;3.05;;
44822;SDS011;51097;51.984;5.650;2023-03-03T21:50:18;12.18;;;2.45;;
44822;SDS011;51097;51.984;5.650;2023-03-03T21:52:45;12.15;;;3.72;;
44822;SDS011;51097;51.984;5.650;2023-03-03T21:55:11;13.65;;;2.85;;
44822;SDS011;51097;51.984;5.650;2023-03-03T21:57:37;13.20;;;3.88;;
44822;SDS011;51097;51.984;5.650;2023-03-03T22:00:03;19.77;;;3.70;;
44822;SDS011;51097;51.984;5.650;2023-03-03T22:02:30;22.17;;;4.20;;
44822;SDS011;51097;51.984;5.650;2023-03-03T22:04:56;16.92;;;3.10;;
44822;SDS011;51097;51.984;5.650;2023-03-03T22:07:21;9.20;;;2.63;;
44822;SDS011;51097;51.984;5.650;2023-03-03T22:09:47;19.02;;;3.60;;
44822;SDS011;51097;51.984;5.650;2023-03-03T22:12:12;14.15;;;2.85;;
44822;SDS011;51097;51.984;5.650;2023-03-03T22:14:38;17.15;;;3.40;;
44822;SDS011;51097;51.984;5.650;2023-03-03T22:17:03;17.75;;;3.33;;
44822;SDS011;51097;51.984;5.650;2023-03-03T22:19:29;19.67;;;3.28;;
44822;SDS011;51097;51.984;5.650;2023-03-03T22:21:55;10.75;;;3.08;;
44822;SDS011;51097;51.984;5.650;2023-03-03T22:24:20;20.52;;;3.88;;